createdAt,value
2018-11-26T00:00:16.976Z,104.23
2018-11-26T00:02:44.716Z,98.87
2018-11-26T00:05:12.497Z,102.07
2018-11-26T00:07:40.226Z,114.17
2018-11-26T00:10:19.508Z,111.13
2018-11-26T00:12:47.317Z,104.07
2018-11-26T00:15:15.035Z,120.63
2018-11-26T00:17:42.723Z,116.30
2018-11-26T00:20:10.459Z,93.53
2018-11-26T00:22:38.179Z,107.23
2018-11-26T00:25:06.507Z,105.47
2018-11-26T00:27:34.271Z,115.53
2018-11-26T00:30:01.977Z,96.53
2018-11-26T00:32:29.690Z,108.90
2018-11-26T00:34:57.424Z,107.47
2018-11-26T00:37:25.123Z,102.43
2018-11-26T00:39:58.537Z,82.13
2018-11-26T00:42:26.232Z,93.50
2018-11-26T00:44:53.957Z,84.90
2018-11-26T00:47:21.685Z,87.03
2018-11-26T00:49:49.362Z,83.10
2018-11-26T00:52:17.034Z,82.77
2018-11-26T00:54:44.765Z,86.80
2018-11-26T00:57:18.049Z,95.47
2018-11-26T00:59:45.770Z,97.40
2018-11-26T01:02:13.467Z,102.27
2018-11-26T01:04:41.253Z,102.20
2018-11-26T01:07:09.011Z,99.60
2018-11-26T01:09:36.699Z,86.20
2018-11-26T01:12:04.414Z,87.60
2018-11-26T01:14:32.135Z,79.30
2018-11-26T01:16:59.821Z,86.83
2018-11-26T01:19:27.515Z,91.07
2018-11-26T01:21:55.326Z,79.07
2018-11-26T01:24:23.032Z,77.90
2018-11-26T01:26:50.744Z,74.97
2018-11-26T01:29:18.537Z,70.80
2018-11-26T01:31:46.268Z,79.37
2018-11-26T01:34:13.966Z,68.00
2018-11-26T01:36:41.727Z,78.07
2018-11-26T01:39:09.421Z,76.07
2018-11-26T01:41:37.192Z,72.43
2018-11-26T01:44:04.951Z,76.10
2018-11-26T01:46:32.652Z,89.93
2018-11-26T01:49:00.329Z,85.57
2018-11-26T01:51:28.072Z,88.83
2018-11-26T01:53:55.795Z,89.63
2018-11-26T01:56:23.473Z,95.30
2018-11-26T01:58:51.210Z,79.70
2018-11-26T02:01:18.959Z,75.17
2018-11-26T02:03:46.630Z,75.97
2018-11-26T02:06:20.019Z,83.13
2018-11-26T02:08:47.695Z,76.27
2018-11-26T02:11:15.382Z,67.77
2018-11-26T02:13:43.118Z,77.80
2018-11-26T02:16:10.792Z,72.13
2018-11-26T02:18:38.473Z,73.87
2018-11-26T02:21:06.220Z,85.27
2018-11-26T02:23:33.893Z,74.43
2018-11-26T02:26:01.710Z,75.63
2018-11-26T02:28:29.475Z,77.13
2018-11-26T02:30:57.185Z,66.37
2018-11-26T02:33:30.583Z,76.73
2018-11-26T02:36:04.053Z,90.23
2018-11-26T02:38:31.766Z,85.97
2018-11-26T02:41:05.128Z,80.40
2018-11-26T02:43:32.880Z,81.83
2018-11-26T02:46:00.560Z,92.57
2018-11-26T02:48:28.256Z,90.30
2018-11-26T02:50:55.948Z,98.93
2018-11-26T02:53:23.640Z,94.80
2018-11-26T02:55:51.312Z,97.73
2018-11-26T02:58:19.045Z,88.13
2018-11-26T03:00:46.756Z,81.00
2018-11-26T03:03:15.351Z,98.30
2018-11-26T03:05:43.418Z,78.23
2018-11-26T03:08:11.101Z,88.73
2018-11-26T03:10:38.779Z,88.43
2018-11-26T03:13:06.547Z,98.83
2018-11-26T03:15:34.224Z,88.53
2018-11-26T03:18:01.935Z,104.20
2018-11-26T03:20:29.668Z,89.97
2018-11-26T03:22:57.357Z,86.00
2018-11-26T03:25:25.069Z,105.13
2018-11-26T03:27:52.850Z,111.23
2018-11-26T03:30:26.171Z,92.73
2018-11-26T03:32:53.949Z,86.07
2018-11-26T03:35:21.648Z,81.60
2018-11-26T03:37:49.372Z,80.47
2018-11-26T03:40:22.557Z,76.97
2018-11-26T03:42:50.616Z,75.87
2018-11-26T03:45:23.936Z,77.60
2018-11-26T03:47:51.606Z,76.70
2018-11-26T03:50:19.322Z,89.90
2018-11-26T03:52:47.014Z,89.37
2018-11-26T03:55:14.722Z,95.73
2018-11-26T03:57:42.424Z,87.17
2018-11-26T04:00:12.454Z,76.33
2018-11-26T04:02:40.156Z,86.70
2018-11-26T04:05:08.791Z,91.77
2018-11-26T04:07:36.506Z,72.10
2018-11-26T04:10:05.857Z,90.43
2018-11-26T04:12:39.156Z,88.97
2018-11-26T04:15:10.365Z,96.17
2018-11-26T04:17:38.034Z,87.00
2018-11-26T04:20:11.355Z,84.67
2018-11-26T04:22:39.072Z,96.87
2018-11-26T04:25:07.863Z,91.93
2018-11-26T04:27:35.676Z,83.80
2018-11-26T04:30:03.613Z,84.47
2018-11-26T04:32:31.343Z,81.50
2018-11-26T04:34:59.050Z,76.80
2018-11-26T04:37:26.735Z,69.10
2018-11-26T04:39:54.448Z,61.53
2018-11-26T04:42:22.276Z,59.33
2018-11-26T04:44:49.971Z,71.83
2018-11-26T04:47:17.684Z,77.80
2018-11-26T04:49:45.424Z,82.50
2018-11-26T04:52:13.208Z,72.93
2018-11-26T04:54:40.914Z,66.37
2018-11-26T04:57:08.658Z,67.93
2018-11-26T04:59:36.366Z,61.07
2018-11-26T05:02:04.358Z,59.57
2018-11-26T05:04:32.084Z,62.40
2018-11-26T05:06:59.797Z,59.97
2018-11-26T05:09:27.492Z,74.83
2018-11-26T05:12:00.943Z,67.50
2018-11-26T05:14:28.632Z,69.67
2018-11-26T05:16:56.359Z,60.57
2018-11-26T05:19:24.083Z,64.73
2018-11-26T05:21:57.313Z,67.83
2018-11-26T05:24:25.044Z,67.10
2018-11-26T05:26:52.742Z,83.03
2018-11-26T05:29:25.970Z,89.57
2018-11-26T05:31:53.812Z,89.73
2018-11-26T05:34:27.284Z,87.93
2018-11-26T05:36:54.982Z,101.60
2018-11-26T05:39:22.706Z,92.50
2018-11-26T05:41:50.434Z,95.80
2018-11-26T05:44:18.176Z,79.43
2018-11-26T05:46:45.908Z,79.10
2018-11-26T05:49:19.295Z,80.60
2018-11-26T05:51:47.008Z,89.37
2018-11-26T05:54:14.708Z,76.50
2018-11-26T05:56:42.448Z,81.30
2018-11-26T05:59:10.138Z,88.00
2018-11-26T06:01:43.452Z,79.67
2018-11-26T06:04:11.124Z,72.60
2018-11-26T06:06:38.848Z,87.87
2018-11-26T06:09:10.116Z,76.93
2018-11-26T06:11:39.192Z,82.57
2018-11-26T06:14:07.033Z,81.63
2018-11-26T06:16:35.956Z,71.13
2018-11-26T06:19:03.807Z,92.77
2018-11-26T06:21:31.490Z,83.23
2018-11-26T06:23:59.922Z,80.27
2018-11-26T06:26:28.973Z,62.60
2018-11-26T06:28:56.684Z,80.13
2018-11-26T06:31:24.402Z,85.30
2018-11-26T06:33:52.066Z,82.40
2018-11-26T06:36:19.895Z,87.07
2018-11-26T06:38:47.644Z,72.37
2018-11-26T06:41:15.359Z,75.80
2018-11-26T06:43:48.656Z,68.23
2018-11-26T06:46:17.792Z,72.63
2018-11-26T06:48:45.476Z,72.30
2018-11-26T06:51:13.210Z,60.13
2018-11-26T06:53:40.898Z,61.97
2018-11-26T06:56:08.642Z,66.20
2018-11-26T06:58:36.336Z,53.93
2018-11-26T07:01:04.122Z,56.27
2018-11-26T07:03:31.835Z,60.40
2018-11-26T07:05:59.575Z,69.43
2018-11-26T07:08:30.560Z,62.43
2018-11-26T07:10:58.262Z,63.63
2018-11-26T07:13:25.980Z,60.07
2018-11-26T07:15:53.687Z,66.67
2018-11-26T07:18:21.404Z,57.80
2018-11-26T07:20:49.128Z,53.73
2018-11-26T07:23:16.803Z,40.83
2018-11-26T07:25:50.308Z,51.97
2018-11-26T07:28:24.618Z,50.53
2018-11-26T07:30:52.400Z,38.87
2018-11-26T07:33:20.120Z,39.20
2018-11-26T07:35:47.848Z,48.80
2018-11-26T07:38:15.611Z,45.90
2018-11-26T07:40:48.872Z,50.63
2018-11-26T07:43:16.603Z,48.83
2018-11-26T07:45:44.287Z,62.90
2018-11-26T07:48:12.259Z,58.17
2018-11-26T07:50:40.007Z,55.77
2018-11-26T07:53:08.882Z,41.77
2018-11-26T07:55:37.184Z,58.90
2018-11-26T07:58:04.932Z,50.60
2018-11-26T08:00:32.642Z,50.13
2018-11-26T08:03:00.372Z,44.20
2018-11-26T08:05:28.094Z,46.53
2018-11-26T08:07:55.844Z,46.33
2018-11-26T08:10:23.914Z,35.50
2018-11-26T08:12:52.778Z,41.27
2018-11-26T08:15:28.128Z,38.87
2018-11-26T08:17:55.899Z,47.53
2018-11-26T08:20:23.711Z,42.40
2018-11-26T08:22:51.420Z,37.87
2018-11-26T08:25:20.172Z,46.10
2018-11-26T08:27:48.572Z,48.60
2018-11-26T08:30:18.419Z,38.13
2018-11-26T08:32:47.568Z,52.60
2018-11-26T08:35:22.428Z,44.37
2018-11-26T08:37:55.740Z,43.40
2018-11-26T08:40:28.880Z,45.33
2018-11-26T08:43:14.956Z,47.40
2018-11-26T08:45:49.613Z,47.10
2018-11-26T08:48:29.888Z,40.90
2018-11-26T08:50:59.534Z,57.73
2018-11-26T08:53:27.363Z,46.80
2018-11-26T08:56:00.671Z,42.00
2018-11-26T08:58:28.323Z,43.73
2018-11-26T09:01:01.767Z,45.07
2018-11-26T09:03:39.884Z,39.60
2018-11-26T09:06:07.676Z,30.43
2018-11-26T09:08:36.513Z,27.63
2018-11-26T09:11:05.276Z,30.03
2018-11-26T09:13:32.949Z,33.70
2018-11-26T09:16:00.632Z,26.57
2018-11-26T09:18:28.384Z,24.50
2018-11-26T09:20:56.125Z,23.43
2018-11-26T09:23:23.811Z,22.67
2018-11-26T09:25:51.507Z,23.27
2018-11-26T09:28:19.260Z,23.77
2018-11-26T09:30:46.989Z,29.43
2018-11-26T09:33:14.765Z,30.00
2018-11-26T09:35:42.530Z,23.40
2018-11-26T09:38:10.222Z,26.63
2018-11-26T09:40:43.524Z,29.43
2018-11-26T09:43:11.323Z,38.83
2018-11-26T09:45:40.397Z,26.77
2018-11-26T09:48:06.887Z,31.53
2018-11-26T09:50:34.676Z,25.43
2018-11-26T09:53:02.377Z,30.30
2018-11-26T09:55:30.115Z,26.27
2018-11-26T09:57:57.814Z,21.97
2018-11-26T10:00:25.549Z,25.80
2018-11-26T10:02:53.277Z,22.77
2018-11-26T10:05:23.099Z,23.90
2018-11-26T10:07:50.846Z,22.73
2018-11-26T10:10:18.632Z,30.40
2018-11-26T10:12:46.326Z,22.30
2018-11-26T10:15:18.051Z,25.97
2018-11-26T10:17:45.873Z,33.97
2018-11-26T10:20:13.551Z,31.60
2018-11-26T10:22:41.904Z,39.27
2018-11-26T10:25:12.080Z,30.20
2018-11-26T10:27:39.985Z,32.80
2018-11-26T10:30:17.792Z,24.50
2018-11-26T10:32:46.160Z,24.87
2018-11-26T10:35:14.857Z,23.97
2018-11-26T10:37:42.660Z,26.83
2018-11-26T10:40:27.107Z,31.37
2018-11-26T10:42:54.852Z,27.17
2018-11-26T10:45:23.712Z,21.80
2018-11-26T10:47:51.419Z,27.60
2018-11-26T10:50:20.775Z,19.67
2018-11-26T10:52:53.627Z,21.03
2018-11-26T10:55:22.881Z,23.20
2018-11-26T10:57:50.724Z,28.30
2018-11-26T11:00:29.835Z,26.03
2018-11-26T11:02:57.515Z,25.57
2018-11-26T11:05:25.256Z,28.70
2018-11-26T11:07:53.032Z,22.23
2018-11-26T11:10:26.992Z,23.20
2018-11-26T11:12:54.715Z,24.00
2018-11-26T11:15:22.430Z,27.27
2018-11-26T11:17:50.131Z,20.17
2018-11-26T11:20:21.052Z,20.70
2018-11-26T11:22:54.320Z,20.13
2018-11-26T11:25:22.402Z,17.30
2018-11-26T11:27:56.503Z,17.63
2018-11-26T11:30:25.551Z,24.60
2018-11-26T11:32:53.070Z,19.87
2018-11-26T11:35:26.450Z,26.13
2018-11-26T11:37:54.630Z,27.77
2018-11-26T11:40:24.483Z,26.47
2018-11-26T11:42:52.491Z,26.50
2018-11-26T11:45:20.816Z,24.93
2018-11-26T11:47:48.504Z,26.27
2018-11-26T11:50:17.504Z,29.93
2018-11-26T11:52:50.902Z,24.50
2018-11-26T11:55:21.760Z,33.40
2018-11-26T11:57:49.856Z,26.43
2018-11-26T12:00:27.520Z,27.97
2018-11-26T12:02:55.242Z,25.57
2018-11-26T12:05:23.056Z,29.67
2018-11-26T12:07:50.766Z,29.67
2018-11-26T12:10:18.450Z,37.33
2018-11-26T12:12:46.160Z,28.43
2018-11-26T12:15:15.220Z,29.80
2018-11-26T12:17:49.194Z,26.60
2018-11-26T12:20:16.892Z,29.13
2018-11-26T12:22:44.874Z,23.70
2018-11-26T12:25:14.683Z,25.97
2018-11-26T12:27:42.405Z,30.43
2018-11-26T12:30:19.548Z,22.23
2018-11-26T12:32:47.244Z,21.77
2018-11-26T12:35:14.975Z,23.43
2018-11-26T12:37:42.660Z,19.70
2018-11-26T12:40:11.807Z,21.70
2018-11-26T12:42:39.475Z,22.03
2018-11-26T12:45:14.694Z,21.40
2018-11-26T12:47:42.361Z,18.73
2018-11-26T12:50:10.063Z,16.73
2018-11-26T12:52:38.107Z,17.37
2018-11-26T12:55:07.826Z,20.20
2018-11-26T12:57:35.804Z,24.60
2018-11-26T13:00:03.970Z,25.37
2018-11-26T13:02:31.632Z,18.13
2018-11-26T13:04:59.323Z,16.07
2018-11-26T13:07:27.008Z,24.40
2018-11-26T13:09:54.664Z,19.40
2018-11-26T13:12:22.332Z,31.30
2018-11-26T13:14:50.046Z,32.10
2018-11-26T13:17:17.706Z,37.97
2018-11-26T13:19:45.392Z,22.17
2018-11-26T13:22:13.082Z,33.60
2018-11-26T13:24:40.788Z,26.63
2018-11-26T13:27:08.461Z,32.23
2018-11-26T13:29:36.154Z,36.90
2018-11-26T13:32:03.845Z,48.77
2018-11-26T13:34:37.308Z,40.37
2018-11-26T13:37:04.842Z,60.47
2018-11-26T13:39:32.532Z,56.50
2018-11-26T13:42:00.225Z,25.80
2018-11-26T13:44:27.883Z,39.70
2018-11-26T13:46:55.621Z,33.13
2018-11-26T13:49:23.321Z,73.77
2018-11-26T13:51:51.037Z,54.43
2018-11-26T13:54:18.721Z,36.73
2018-11-26T13:56:46.453Z,21.93
2018-11-26T13:59:14.144Z,30.37
2018-11-26T14:01:41.809Z,26.50
2018-11-26T14:04:09.492Z,28.17
2018-11-26T14:06:38.053Z,42.87
2018-11-26T14:09:08.566Z,33.73
2018-11-26T14:11:36.235Z,40.40
2018-11-26T14:14:05.282Z,30.23
2018-11-26T14:16:33.005Z,37.00
2018-11-26T14:19:00.725Z,29.67
2018-11-26T14:21:28.425Z,31.73
2018-11-26T14:23:56.205Z,29.93
2018-11-26T14:26:29.357Z,32.03
2018-11-26T14:28:57.084Z,31.83
2018-11-26T14:31:30.233Z,27.27
2018-11-26T14:33:57.955Z,28.07
2018-11-26T14:36:27.399Z,22.17
2018-11-26T14:38:55.079Z,27.17
2018-11-26T14:41:22.833Z,27.63
2018-11-26T14:43:50.595Z,18.80
2018-11-26T14:46:18.338Z,22.43
2018-11-26T14:48:46.138Z,30.60
2018-11-26T14:51:13.838Z,31.90
2018-11-26T14:53:41.565Z,21.23
2018-11-26T14:56:09.294Z,34.00
2018-11-26T14:58:37.035Z,37.13
2018-11-26T15:01:05.056Z,33.63
2018-11-26T15:03:32.807Z,40.73
2018-11-26T15:06:00.497Z,41.43
2018-11-26T15:08:28.215Z,37.37
2018-11-26T15:10:55.937Z,28.27
2018-11-26T15:13:29.335Z,32.87
2018-11-26T15:16:03.579Z,44.07
2018-11-26T15:18:31.559Z,39.23
2018-11-26T15:20:59.291Z,28.30
2018-11-26T15:23:27.018Z,26.27
2018-11-26T15:25:54.755Z,30.93
2018-11-26T15:28:22.441Z,40.77
2018-11-26T15:30:55.729Z,41.93
2018-11-26T15:33:23.406Z,40.40
2018-11-26T15:35:51.419Z,41.00
2018-11-26T15:38:19.222Z,38.43
2018-11-26T15:40:49.856Z,31.97
2018-11-26T15:43:19.082Z,37.03
2018-11-26T15:45:46.841Z,34.87
2018-11-26T15:48:14.572Z,42.70
2018-11-26T15:50:42.353Z,36.00
2018-11-26T15:53:15.976Z,45.43
2018-11-26T15:55:43.823Z,42.93
2018-11-26T15:58:11.549Z,35.53
2018-11-26T16:00:39.269Z,48.07
2018-11-26T16:03:07.115Z,46.27
2018-11-26T16:05:34.932Z,52.43
2018-11-26T16:08:05.056Z,41.73
2018-11-26T16:10:32.778Z,48.30
2018-11-26T16:13:01.632Z,45.17
2018-11-26T16:15:35.609Z,37.30
2018-11-26T16:18:05.489Z,34.83
2018-11-26T16:20:33.181Z,45.73
2018-11-26T16:23:02.429Z,40.77
2018-11-26T16:25:30.165Z,46.83
2018-11-26T16:27:57.876Z,44.77
2018-11-26T16:30:25.653Z,36.17
2018-11-26T16:32:59.041Z,34.67
2018-11-26T16:35:31.152Z,33.20
2018-11-26T16:37:59.069Z,33.67
2018-11-26T16:40:26.797Z,28.70
2018-11-26T16:42:55.500Z,28.83
2018-11-26T16:45:24.674Z,21.07
2018-11-26T16:47:53.185Z,22.20
2018-11-26T16:50:22.234Z,28.83
2018-11-26T16:52:49.973Z,30.63
2018-11-26T16:55:17.983Z,34.77
2018-11-26T16:57:45.925Z,31.37
2018-11-26T17:00:17.796Z,33.07
2018-11-26T17:02:46.406Z,38.53
2018-11-26T17:05:15.615Z,34.03
2018-11-26T17:07:43.317Z,22.03
2018-11-26T17:10:11.255Z,25.90
2018-11-26T17:12:39.616Z,31.20
2018-11-26T17:15:12.192Z,28.37
2018-11-26T17:17:45.557Z,27.13
2018-11-26T17:20:14.713Z,31.90
2018-11-26T17:22:42.590Z,21.23
2018-11-26T17:25:11.471Z,25.30
2018-11-26T17:27:39.821Z,30.77
2018-11-26T17:30:27.932Z,50.23
2018-11-26T17:33:01.476Z,39.13
2018-11-26T17:35:29.846Z,42.27
2018-11-26T17:37:57.571Z,44.20
2018-11-26T17:40:25.737Z,51.53
2018-11-26T17:42:54.071Z,37.93
2018-11-26T17:45:22.486Z,39.13
2018-11-26T17:47:51.696Z,60.37
2018-11-26T17:50:21.725Z,55.70
2018-11-26T17:52:49.547Z,61.33
2018-11-26T17:55:22.971Z,60.33
2018-11-26T17:57:50.740Z,40.80
2018-11-26T18:00:20.845Z,33.83
2018-11-26T18:02:48.650Z,42.77
2018-11-26T18:05:18.629Z,34.67
2018-11-26T18:07:49.322Z,22.40
2018-11-26T18:10:17.052Z,33.63
2018-11-26T18:12:44.801Z,35.63
2018-11-26T18:15:13.568Z,33.20
2018-11-26T18:17:41.783Z,45.77
2018-11-26T18:20:14.771Z,48.50
2018-11-26T18:22:43.424Z,47.10
2018-11-26T18:25:11.638Z,48.10
2018-11-26T18:27:47.027Z,28.30
2018-11-26T18:30:17.574Z,32.57
2018-11-26T18:32:45.296Z,29.13
2018-11-26T18:35:13.392Z,39.63
2018-11-26T18:37:41.100Z,45.70
2018-11-26T18:40:19.204Z,40.77
2018-11-26T18:42:46.960Z,26.73
2018-11-26T18:45:15.971Z,24.33
2018-11-26T18:47:44.219Z,24.53
2018-11-26T18:50:14.316Z,19.17
2018-11-26T18:52:42.896Z,13.37
2018-11-26T18:55:10.954Z,21.43
2018-11-26T18:57:38.706Z,24.67
2018-11-26T19:00:10.910Z,16.63
2018-11-26T19:02:44.331Z,21.33
2018-11-26T19:05:13.079Z,23.47
2018-11-26T19:07:40.900Z,33.23
2018-11-26T19:10:12.913Z,28.67
2018-11-26T19:12:41.476Z,27.27
2018-11-26T19:15:16.477Z,25.50
2018-11-26T19:17:44.241Z,24.17
2018-11-26T19:20:12.396Z,28.77
2018-11-26T19:22:40.998Z,40.97
2018-11-26T19:25:10.508Z,61.93
2018-11-26T19:27:38.219Z,46.50
2018-11-26T19:30:15.377Z,38.83
2018-11-26T19:32:44.248Z,30.03
2018-11-26T19:35:13.450Z,44.23
2018-11-26T19:37:41.183Z,30.10
2018-11-26T19:40:17.956Z,29.20
2018-11-26T19:42:46.402Z,29.87
2018-11-26T19:45:18.658Z,38.27
2018-11-26T19:47:46.537Z,38.57
2018-11-26T19:50:17.411Z,52.17
2018-11-26T19:52:46.295Z,49.37
2018-11-26T19:55:16.239Z,35.07
2018-11-26T19:57:43.949Z,33.53
2018-11-26T20:00:14.729Z,38.33
2018-11-26T20:02:43.139Z,32.13
2018-11-26T20:05:29.529Z,33.03
2018-11-26T20:08:02.950Z,43.03
2018-11-26T20:10:30.683Z,40.87
2018-11-26T20:12:58.427Z,47.73
2018-11-26T20:15:26.191Z,38.87
2018-11-26T20:17:58.910Z,42.97
2018-11-26T20:20:22.848Z,34.70
2018-11-26T20:22:50.593Z,34.63
2018-11-26T20:25:18.683Z,38.53
2018-11-26T20:27:52.062Z,37.20
2018-11-26T20:30:19.917Z,41.10
2018-11-26T20:32:47.993Z,39.30
2018-11-26T20:35:15.697Z,43.77
2018-11-26T20:37:43.467Z,38.57
2018-11-26T20:40:13.376Z,41.70
2018-11-26T20:42:44.398Z,41.87
2018-11-26T20:45:13.556Z,45.37
2018-11-26T20:47:41.366Z,34.00
2018-11-26T20:50:12.287Z,23.90
2018-11-26T20:52:45.641Z,25.60
2018-11-26T20:55:15.001Z,36.10
2018-11-26T20:57:42.708Z,116.73
2018-11-26T21:00:13.981Z,68.63
2018-11-26T21:02:41.850Z,44.87
2018-11-26T21:05:09.725Z,50.97
2018-11-26T21:07:37.416Z,66.13
2018-11-26T21:10:07.721Z,67.97
2018-11-26T21:12:35.421Z,59.23
2018-11-26T21:15:03.664Z,82.77
2018-11-26T21:17:31.488Z,47.50
2018-11-26T21:20:04.766Z,54.27
2018-11-26T21:22:32.536Z,72.33
2018-11-26T21:25:00.282Z,89.43
2018-11-26T21:27:33.765Z,84.60
2018-11-26T21:30:01.448Z,75.73
2018-11-26T21:32:29.140Z,46.93
2018-11-26T21:34:56.875Z,46.83
2018-11-26T21:37:24.607Z,46.93
2018-11-26T21:39:52.292Z,60.80
2018-11-26T21:42:20.074Z,78.07
2018-11-26T21:44:47.983Z,73.83
2018-11-26T21:47:15.689Z,94.20
2018-11-26T21:49:43.601Z,99.70
2018-11-26T21:52:11.382Z,102.47
2018-11-26T21:54:39.145Z,99.00
2018-11-26T21:57:06.954Z,94.53
2018-11-26T21:59:34.685Z,101.93
2018-11-26T22:02:02.443Z,92.03
2018-11-26T22:04:30.194Z,150.93
2018-11-26T22:06:58.191Z,158.97
2018-11-26T22:09:25.905Z,128.13
2018-11-26T22:11:53.669Z,99.07
2018-11-26T22:14:21.461Z,88.27
2018-11-26T22:16:49.281Z,75.33
2018-11-26T22:19:17.051Z,58.07
2018-11-26T22:21:44.865Z,65.77
2018-11-26T22:24:12.583Z,72.47
2018-11-26T22:26:40.335Z,60.57
2018-11-26T22:29:08.060Z,70.40
2018-11-26T22:31:35.795Z,66.07
2018-11-26T22:34:03.561Z,57.00
2018-11-26T22:36:31.326Z,64.77
2018-11-26T22:38:59.050Z,67.40
2018-11-26T22:41:26.800Z,66.83
2018-11-26T22:43:54.553Z,58.00
2018-11-26T22:46:22.260Z,66.73
2018-11-26T22:48:50.053Z,76.80
2018-11-26T22:51:18.325Z,75.50
2018-11-26T22:53:46.025Z,66.70
2018-11-26T22:56:13.783Z,66.03
2018-11-26T22:58:41.508Z,59.20
2018-11-26T23:01:09.241Z,69.27
2018-11-26T23:03:37.010Z,61.57
2018-11-26T23:06:05.112Z,66.37
2018-11-26T23:08:32.831Z,63.70
2018-11-26T23:11:00.634Z,59.03
2018-11-26T23:13:28.303Z,56.30
2018-11-26T23:15:55.985Z,63.93
2018-11-26T23:18:23.761Z,66.80
2018-11-26T23:20:51.509Z,59.60
2018-11-26T23:23:19.213Z,76.30
2018-11-26T23:25:46.969Z,64.30
2018-11-26T23:28:14.685Z,71.87
2018-11-26T23:30:42.394Z,74.30
2018-11-26T23:33:10.145Z,72.90
2018-11-26T23:35:37.862Z,68.93
2018-11-26T23:38:05.721Z,85.37
2018-11-26T23:40:34.242Z,67.83
2018-11-26T23:43:01.703Z,76.47
2018-11-26T23:45:29.620Z,65.03
2018-11-26T23:47:57.348Z,70.87
2018-11-26T23:50:25.030Z,73.23
2018-11-26T23:52:52.740Z,65.97
2018-11-26T23:55:21.737Z,67.87
2018-11-26T23:57:55.125Z,61.93
